sensor_id;sensor_type;location;lat;lon;timestamp;P1;durP1;ratioP1;P2;durP2;ratioP2
19505;SDS011;9894;50.852;-0.140;2024-03-17T00:01:48;29.10;;;8.43;;
19505;SDS011;9894;50.852;-0.140;2024-03-17T00:04:13;22.23;;;7.43;;
19505;SDS011;9894;50.852;-0.140;2024-03-17T00:06:40;16.67;;;7.43;;
19505;SDS011;9894;50.852;-0.140;2024-03-17T00:09:06;32.67;;;7.90;;
19505;SDS011;9894;50.852;-0.140;2024-03-17T00:11:35;19.88;;;8.02;;
19505;SDS011;9894;50.852;-0.140;2024-03-17T00:14:01;23.83;;;8.07;;
19505;SDS011;9894;50.852;-0.140;2024-03-17T00:16:28;29.63;;;9.48;;
19505;SDS011;9894;50.852;-0.140;2024-03-17T00:18:54;27.30;;;9.02;;
19505;SDS011;9894;50.852;-0.140;2024-03-17T00:21:21;24.33;;;9.05;;
19505;SDS011;9894;50.852;-0.140;2024-03-17T00:23:47;30.27;;;9.35;;
19505;SDS011;9894;50.852;-0.140;2024-03-17T00:26:15;26.35;;;8.98;;
19505;SDS011;9894;50.852;-0.140;2024-03-17T00:28:41;24.15;;;10.55;;
19505;SDS011;9894;50.852;-0.140;2024-03-17T00:31:08;25.73;;;8.88;;
19505;SDS011;9894;50.852;-0.140;2024-03-17T00:33:35;31.60;;;9.20;;
19505;SDS011;9894;50.852;-0.140;2024-03-17T00:36:02;37.70;;;9.20;;
19505;SDS011;9894;50.852;-0.140;2024-03-17T00:38:28;48.05;;;11.40;;
19505;SDS011;9894;50.852;-0.140;2024-03-17T00:40:55;58.60;;;10.70;;
19505;SDS011;9894;50.852;-0.140;2024-03-17T00:43:21;44.15;;;10.65;;
19505;SDS011;9894;50.852;-0.140;2024-03-17T00:45:51;36.17;;;13.57;;
19505;SDS011;9894;50.852;-0.140;2024-03-17T00:48:17;48.92;;;14.02;;
19505;SDS011;9894;50.852;-0.140;2024-03-17T00:50:44;39.72;;;12.65;;
19505;SDS011;9894;50.852;-0.140;2024-03-17T00:53:13;34.90;;;11.95;;
19505;SDS011;9894;50.852;-0.140;2024-03-17T00:55:40;32.00;;;11.00;;
19505;SDS011;9894;50.852;-0.140;2024-03-17T00:58:05;40.08;;;14.02;;
19505;SDS011;9894;50.852;-0.140;2024-03-17T01:00:32;49.55;;;12.07;;
19505;SDS011;9894;50.852;-0.140;2024-03-17T01:02:58;38.28;;;11.52;;
19505;SDS011;9894;50.852;-0.140;2024-03-17T01:05:25;50.95;;;12.77;;
19505;SDS011;9894;50.852;-0.140;2024-03-17T01:07:51;53.55;;;11.30;;
19505;SDS011;9894;50.852;-0.140;2024-03-17T01:10:18;48.40;;;11.95;;
19505;SDS011;9894;50.852;-0.140;2024-03-17T01:12:44;53.30;;;10.48;;
19505;SDS011;9894;50.852;-0.140;2024-03-17T01:15:11;63.83;;;12.00;;
19505;SDS011;9894;50.852;-0.140;2024-03-17T01:17:37;44.95;;;12.90;;
19505;SDS011;9894;50.852;-0.140;2024-03-17T01:20:05;52.17;;;12.18;;
19505;SDS011;9894;50.852;-0.140;2024-03-17T01:22:31;36.38;;;10.23;;
19505;SDS011;9894;50.852;-0.140;2024-03-17T01:24:57;51.38;;;12.75;;
19505;SDS011;9894;50.852;-0.140;2024-03-17T01:27:23;92.18;;;13.02;;
19505;SDS011;9894;50.852;-0.140;2024-03-17T01:29:50;36.03;;;10.75;;
19505;SDS011;9894;50.852;-0.140;2024-03-17T01:32:16;103.22;;;14.55;;
19505;SDS011;9894;50.852;-0.140;2024-03-17T01:34:44;68.50;;;12.27;;
19505;SDS011;9894;50.852;-0.140;2024-03-17T01:37:10;59.28;;;12.00;;
19505;SDS011;9894;50.852;-0.140;2024-03-17T01:39:37;46.78;;;11.13;;
19505;SDS011;9894;50.852;-0.140;2024-03-17T01:42:02;75.28;;;11.45;;
19505;SDS011;9894;50.852;-0.140;2024-03-17T01:44:29;112.80;;;18.08;;
19505;SDS011;9894;50.852;-0.140;2024-03-17T01:46:56;71.43;;;10.93;;
19505;SDS011;9894;50.852;-0.140;2024-03-17T01:49:23;66.65;;;9.50;;
19505;SDS011;9894;50.852;-0.140;2024-03-17T01:51:50;46.28;;;10.88;;
19505;SDS011;9894;50.852;-0.140;2024-03-17T01:54:18;108.32;;;13.38;;
19505;SDS011;9894;50.852;-0.140;2024-03-17T01:56:43;34.95;;;9.02;;
19505;SDS011;9894;50.852;-0.140;2024-03-17T01:59:13;33.65;;;9.40;;
19505;SDS011;9894;50.852;-0.140;2024-03-17T02:01:39;33.67;;;9.02;;
19505;SDS011;9894;50.852;-0.140;2024-03-17T02:04:06;30.40;;;10.45;;
19505;SDS011;9894;50.852;-0.140;2024-03-17T02:06:32;45.75;;;10.05;;
19505;SDS011;9894;50.852;-0.140;2024-03-17T02:08:59;30.75;;;9.07;;
19505;SDS011;9894;50.852;-0.140;2024-03-17T02:11:26;37.83;;;9.57;;
19505;SDS011;9894;50.852;-0.140;2024-03-17T02:13:53;25.67;;;9.05;;
19505;SDS011;9894;50.852;-0.140;2024-03-17T02:16:19;36.83;;;11.25;;
19505;SDS011;9894;50.852;-0.140;2024-03-17T02:18:46;26.30;;;9.20;;
19505;SDS011;9894;50.852;-0.140;2024-03-17T02:21:12;36.70;;;11.10;;
19505;SDS011;9894;50.852;-0.140;2024-03-17T02:23:42;40.88;;;11.02;;
19505;SDS011;9894;50.852;-0.140;2024-03-17T02:26:08;27.55;;;10.63;;
19505;SDS011;9894;50.852;-0.140;2024-03-17T02:28:38;30.33;;;10.23;;
19505;SDS011;9894;50.852;-0.140;2024-03-17T02:33:50;36.03;;;10.52;;
19505;SDS011;9894;50.852;-0.140;2024-03-17T02:36:16;39.40;;;10.05;;
19505;SDS011;9894;50.852;-0.140;2024-03-17T02:38:43;43.65;;;10.60;;
19505;SDS011;9894;50.852;-0.140;2024-03-17T02:41:27;38.65;;;11.45;;
19505;SDS011;9894;50.852;-0.140;2024-03-17T02:43:55;31.70;;;9.07;;
19505;SDS011;9894;50.852;-0.140;2024-03-17T02:46:21;31.10;;;9.63;;
19505;SDS011;9894;50.852;-0.140;2024-03-17T02:48:50;30.33;;;7.72;;
19505;SDS011;9894;50.852;-0.140;2024-03-17T02:51:18;39.45;;;9.13;;
19505;SDS011;9894;50.852;-0.140;2024-03-17T02:53:46;32.10;;;8.10;;
19505;SDS011;9894;50.852;-0.140;2024-03-17T02:56:14;36.83;;;7.15;;
19505;SDS011;9894;50.852;-0.140;2024-03-17T02:58:42;24.02;;;7.32;;
19505;SDS011;9894;50.852;-0.140;2024-03-17T03:01:09;28.85;;;7.50;;
19505;SDS011;9894;50.852;-0.140;2024-03-17T03:03:36;31.00;;;8.10;;
19505;SDS011;9894;50.852;-0.140;2024-03-17T03:06:09;30.10;;;7.82;;
19505;SDS011;9894;50.852;-0.140;2024-03-17T03:08:40;28.08;;;6.78;;
19505;SDS011;9894;50.852;-0.140;2024-03-17T03:11:08;28.83;;;7.25;;
19505;SDS011;9894;50.852;-0.140;2024-03-17T03:13:37;42.10;;;7.95;;
19505;SDS011;9894;50.852;-0.140;2024-03-17T03:16:05;25.15;;;7.20;;
19505;SDS011;9894;50.852;-0.140;2024-03-17T03:18:33;32.65;;;7.43;;
19505;SDS011;9894;50.852;-0.140;2024-03-17T03:21:00;28.63;;;6.95;;
19505;SDS011;9894;50.852;-0.140;2024-03-17T03:23:36;49.60;;;10.63;;
19505;SDS011;9894;50.852;-0.140;2024-03-17T03:28:33;32.40;;;7.47;;
19505;SDS011;9894;50.852;-0.140;2024-03-17T03:31:00;38.17;;;7.88;;
19505;SDS011;9894;50.852;-0.140;2024-03-17T03:33:27;44.25;;;6.75;;
19505;SDS011;9894;50.852;-0.140;2024-03-17T03:35:54;29.35;;;7.22;;
19505;SDS011;9894;50.852;-0.140;2024-03-17T03:38:22;31.75;;;7.32;;
19505;SDS011;9894;50.852;-0.140;2024-03-17T03:40:49;33.45;;;7.00;;
19505;SDS011;9894;50.852;-0.140;2024-03-17T03:43:16;33.45;;;7.50;;
19505;SDS011;9894;50.852;-0.140;2024-03-17T03:45:43;36.90;;;6.63;;
19505;SDS011;9894;50.852;-0.140;2024-03-17T03:48:10;38.60;;;7.57;;
19505;SDS011;9894;50.852;-0.140;2024-03-17T03:50:38;35.53;;;6.90;;
19505;SDS011;9894;50.852;-0.140;2024-03-17T03:53:05;44.20;;;7.38;;
19505;SDS011;9894;50.852;-0.140;2024-03-17T03:55:32;22.98;;;6.35;;
19505;SDS011;9894;50.852;-0.140;2024-03-17T03:57:58;29.52;;;7.55;;
19505;SDS011;9894;50.852;-0.140;2024-03-17T04:00:25;44.42;;;7.32;;
19505;SDS011;9894;50.852;-0.140;2024-03-17T04:02:57;35.10;;;7.82;;
19505;SDS011;9894;50.852;-0.140;2024-03-17T04:05:25;30.55;;;9.00;;
19505;SDS011;9894;50.852;-0.140;2024-03-17T04:07:52;26.13;;;7.63;;
19505;SDS011;9894;50.852;-0.140;2024-03-17T04:10:19;40.85;;;8.23;;
19505;SDS011;9894;50.852;-0.140;2024-03-17T04:12:46;34.65;;;7.72;;
19505;SDS011;9894;50.852;-0.140;2024-03-17T04:15:13;36.88;;;9.18;;
19505;SDS011;9894;50.852;-0.140;2024-03-17T04:17:40;29.50;;;8.32;;
19505;SDS011;9894;50.852;-0.140;2024-03-17T04:20:07;39.13;;;8.13;;
19505;SDS011;9894;50.852;-0.140;2024-03-17T04:22:35;37.88;;;7.72;;
19505;SDS011;9894;50.852;-0.140;2024-03-17T04:25:02;38.80;;;9.43;;
19505;SDS011;9894;50.852;-0.140;2024-03-17T04:27:29;37.03;;;8.23;;
19505;SDS011;9894;50.852;-0.140;2024-03-17T04:29:59;32.83;;;7.90;;
19505;SDS011;9894;50.852;-0.140;2024-03-17T04:32:26;36.30;;;8.45;;
19505;SDS011;9894;50.852;-0.140;2024-03-17T04:34:53;23.88;;;7.20;;
19505;SDS011;9894;50.852;-0.140;2024-03-17T04:37:20;34.22;;;8.23;;
19505;SDS011;9894;50.852;-0.140;2024-03-17T04:39:48;38.30;;;7.47;;
19505;SDS011;9894;50.852;-0.140;2024-03-17T04:42:15;44.47;;;9.00;;
19505;SDS011;9894;50.852;-0.140;2024-03-17T04:44:43;24.60;;;7.28;;
19505;SDS011;9894;50.852;-0.140;2024-03-17T04:47:10;45.72;;;8.35;;
19505;SDS011;9894;50.852;-0.140;2024-03-17T04:49:38;38.97;;;8.68;;
19505;SDS011;9894;50.852;-0.140;2024-03-17T04:52:06;48.55;;;7.55;;
19505;SDS011;9894;50.852;-0.140;2024-03-17T04:54:33;47.17;;;9.00;;
19505;SDS011;9894;50.852;-0.140;2024-03-17T04:57:00;19.85;;;5.55;;
19505;SDS011;9894;50.852;-0.140;2024-03-17T04:59:27;31.90;;;5.82;;
19505;SDS011;9894;50.852;-0.140;2024-03-17T05:01:54;32.13;;;5.80;;
19505;SDS011;9894;50.852;-0.140;2024-03-17T05:04:21;34.28;;;6.82;;
19505;SDS011;9894;50.852;-0.140;2024-03-17T05:06:48;24.92;;;4.80;;
19505;SDS011;9894;50.852;-0.140;2024-03-17T05:09:15;36.58;;;5.22;;
19505;SDS011;9894;50.852;-0.140;2024-03-17T05:11:42;36.28;;;5.63;;
19505;SDS011;9894;50.852;-0.140;2024-03-17T05:14:09;33.92;;;6.63;;
19505;SDS011;9894;50.852;-0.140;2024-03-17T05:16:36;27.45;;;4.80;;
19505;SDS011;9894;50.852;-0.140;2024-03-17T05:19:03;33.38;;;6.85;;
19505;SDS011;9894;50.852;-0.140;2024-03-17T05:21:30;25.60;;;5.00;;
19505;SDS011;9894;50.852;-0.140;2024-03-17T05:23:57;30.52;;;6.05;;
19505;SDS011;9894;50.852;-0.140;2024-03-17T05:26:24;24.00;;;5.95;;
19505;SDS011;9894;50.852;-0.140;2024-03-17T05:28:50;33.40;;;5.55;;
19505;SDS011;9894;50.852;-0.140;2024-03-17T05:31:17;25.38;;;4.95;;
19505;SDS011;9894;50.852;-0.140;2024-03-17T05:33:45;27.15;;;5.20;;
19505;SDS011;9894;50.852;-0.140;2024-03-17T05:36:11;23.50;;;4.93;;
19505;SDS011;9894;50.852;-0.140;2024-03-17T05:38:38;22.45;;;5.18;;
19505;SDS011;9894;50.852;-0.140;2024-03-17T05:41:06;22.60;;;4.20;;
19505;SDS011;9894;50.852;-0.140;2024-03-17T05:43:34;36.65;;;5.95;;
19505;SDS011;9894;50.852;-0.140;2024-03-17T05:46:02;32.10;;;5.70;;
19505;SDS011;9894;50.852;-0.140;2024-03-17T05:48:32;31.15;;;7.68;;
19505;SDS011;9894;50.852;-0.140;2024-03-17T05:51:00;22.45;;;5.82;;
19505;SDS011;9894;50.852;-0.140;2024-03-17T05:53:27;25.63;;;5.40;;
19505;SDS011;9894;50.852;-0.140;2024-03-17T05:55:54;28.58;;;5.75;;
19505;SDS011;9894;50.852;-0.140;2024-03-17T05:58:21;25.23;;;4.85;;
19505;SDS011;9894;50.852;-0.140;2024-03-17T06:00:48;37.65;;;6.10;;
19505;SDS011;9894;50.852;-0.140;2024-03-17T06:03:15;26.42;;;4.55;;
19505;SDS011;9894;50.852;-0.140;2024-03-17T06:05:43;24.70;;;5.13;;
19505;SDS011;9894;50.852;-0.140;2024-03-17T06:08:11;27.88;;;5.78;;
19505;SDS011;9894;50.852;-0.140;2024-03-17T06:10:38;33.35;;;6.95;;
19505;SDS011;9894;50.852;-0.140;2024-03-17T06:13:09;27.85;;;5.60;;
19505;SDS011;9894;50.852;-0.140;2024-03-17T06:15:41;20.58;;;5.40;;
19505;SDS011;9894;50.852;-0.140;2024-03-17T06:18:08;42.95;;;6.28;;
19505;SDS011;9894;50.852;-0.140;2024-03-17T06:20:43;41.53;;;6.13;;
19505;SDS011;9894;50.852;-0.140;2024-03-17T06:23:10;29.52;;;7.15;;
19505;SDS011;9894;50.852;-0.140;2024-03-17T06:25:38;33.53;;;6.13;;
19505;SDS011;9894;50.852;-0.140;2024-03-17T06:28:05;27.63;;;5.68;;
19505;SDS011;9894;50.852;-0.140;2024-03-17T06:30:32;34.30;;;6.10;;
19505;SDS011;9894;50.852;-0.140;2024-03-17T06:33:01;34.42;;;5.88;;
19505;SDS011;9894;50.852;-0.140;2024-03-17T06:35:28;34.25;;;5.82;;
19505;SDS011;9894;50.852;-0.140;2024-03-17T06:37:58;32.63;;;7.18;;
19505;SDS011;9894;50.852;-0.140;2024-03-17T06:42:52;29.20;;;5.65;;
19505;SDS011;9894;50.852;-0.140;2024-03-17T06:45:19;36.22;;;7.20;;
19505;SDS011;9894;50.852;-0.140;2024-03-17T06:47:46;33.22;;;4.63;;
19505;SDS011;9894;50.852;-0.140;2024-03-17T06:50:13;31.77;;;5.50;;
19505;SDS011;9894;50.852;-0.140;2024-03-17T06:52:40;31.42;;;4.82;;
19505;SDS011;9894;50.852;-0.140;2024-03-17T06:55:07;38.83;;;6.80;;
19505;SDS011;9894;50.852;-0.140;2024-03-17T06:57:34;34.38;;;4.85;;
19505;SDS011;9894;50.852;-0.140;2024-03-17T07:00:01;23.90;;;5.47;;
19505;SDS011;9894;50.852;-0.140;2024-03-17T07:02:31;27.70;;;5.28;;
19505;SDS011;9894;50.852;-0.140;2024-03-17T07:04:58;25.92;;;5.10;;
19505;SDS011;9894;50.852;-0.140;2024-03-17T07:07:27;25.63;;;6.70;;
19505;SDS011;9894;50.852;-0.140;2024-03-17T07:09:54;32.40;;;6.60;;
19505;SDS011;9894;50.852;-0.140;2024-03-17T07:12:21;24.92;;;5.60;;
19505;SDS011;9894;50.852;-0.140;2024-03-17T07:14:51;35.30;;;6.57;;
19505;SDS011;9894;50.852;-0.140;2024-03-17T07:17:18;34.58;;;6.07;;
19505;SDS011;9894;50.852;-0.140;2024-03-17T07:19:45;24.25;;;5.03;;
19505;SDS011;9894;50.852;-0.140;2024-03-17T07:22:11;31.63;;;6.50;;
19505;SDS011;9894;50.852;-0.140;2024-03-17T07:24:38;31.35;;;5.88;;
19505;SDS011;9894;50.852;-0.140;2024-03-17T07:27:05;28.08;;;4.65;;
19505;SDS011;9894;50.852;-0.140;2024-03-17T07:29:34;24.42;;;4.70;;
19505;SDS011;9894;50.852;-0.140;2024-03-17T07:32:01;30.20;;;5.07;;
19505;SDS011;9894;50.852;-0.140;2024-03-17T07:34:30;26.55;;;4.57;;
19505;SDS011;9894;50.852;-0.140;2024-03-17T07:36:57;20.52;;;4.75;;
19505;SDS011;9894;50.852;-0.140;2024-03-17T07:39:29;29.55;;;4.88;;
19505;SDS011;9894;50.852;-0.140;2024-03-17T07:42:01;40.65;;;5.05;;
19505;SDS011;9894;50.852;-0.140;2024-03-17T07:44:28;24.13;;;6.72;;
19505;SDS011;9894;50.852;-0.140;2024-03-17T07:47:02;39.67;;;5.85;;
19505;SDS011;9894;50.852;-0.140;2024-03-17T07:49:30;28.80;;;5.78;;
19505;SDS011;9894;50.852;-0.140;2024-03-17T07:51:57;25.88;;;4.40;;
19505;SDS011;9894;50.852;-0.140;2024-03-17T07:54:24;27.00;;;5.80;;
19505;SDS011;9894;50.852;-0.140;2024-03-17T07:56:51;40.30;;;5.10;;
19505;SDS011;9894;50.852;-0.140;2024-03-17T07:59:18;22.63;;;3.88;;
19505;SDS011;9894;50.852;-0.140;2024-03-17T08:01:45;30.25;;;5.50;;
19505;SDS011;9894;50.852;-0.140;2024-03-17T08:04:12;29.13;;;5.30;;
19505;SDS011;9894;50.852;-0.140;2024-03-17T08:06:39;24.55;;;4.30;;
19505;SDS011;9894;50.852;-0.140;2024-03-17T08:09:07;14.98;;;4.32;;
19505;SDS011;9894;50.852;-0.140;2024-03-17T08:11:35;25.63;;;3.45;;
19505;SDS011;9894;50.852;-0.140;2024-03-17T08:14:01;33.53;;;4.50;;
19505;SDS011;9894;50.852;-0.140;2024-03-17T08:16:28;28.80;;;4.43;;
19505;SDS011;9894;50.852;-0.140;2024-03-17T08:18:57;27.17;;;5.18;;
19505;SDS011;9894;50.852;-0.140;2024-03-17T08:21:24;30.15;;;4.90;;
19505;SDS011;9894;50.852;-0.140;2024-03-17T08:23:52;39.28;;;5.30;;
19505;SDS011;9894;50.852;-0.140;2024-03-17T08:26:19;36.20;;;4.70;;
19505;SDS011;9894;50.852;-0.140;2024-03-17T08:28:46;20.63;;;3.85;;
19505;SDS011;9894;50.852;-0.140;2024-03-17T08:31:13;64.47;;;5.70;;
19505;SDS011;9894;50.852;-0.140;2024-03-17T08:33:41;26.00;;;4.65;;
19505;SDS011;9894;50.852;-0.140;2024-03-17T08:36:08;24.48;;;3.83;;
19505;SDS011;9894;50.852;-0.140;2024-03-17T08:38:36;27.90;;;3.47;;
19505;SDS011;9894;50.852;-0.140;2024-03-17T08:41:07;21.30;;;3.40;;
19505;SDS011;9894;50.852;-0.140;2024-03-17T08:43:35;23.27;;;3.35;;
19505;SDS011;9894;50.852;-0.140;2024-03-17T08:46:03;22.73;;;3.17;;
19505;SDS011;9894;50.852;-0.140;2024-03-17T08:48:31;21.40;;;3.70;;
19505;SDS011;9894;50.852;-0.140;2024-03-17T08:50:58;79.50;;;6.88;;
19505;SDS011;9894;50.852;-0.140;2024-03-17T08:53:25;67.70;;;6.15;;
19505;SDS011;9894;50.852;-0.140;2024-03-17T08:55:53;51.20;;;4.88;;
19505;SDS011;9894;50.852;-0.140;2024-03-17T08:58:20;24.58;;;3.72;;
19505;SDS011;9894;50.852;-0.140;2024-03-17T09:00:47;11.15;;;2.50;;
19505;SDS011;9894;50.852;-0.140;2024-03-17T09:03:14;23.67;;;3.28;;
19505;SDS011;9894;50.852;-0.140;2024-03-17T09:05:42;14.65;;;3.50;;
19505;SDS011;9894;50.852;-0.140;2024-03-17T09:08:19;9.73;;;2.33;;
19505;SDS011;9894;50.852;-0.140;2024-03-17T09:10:50;10.35;;;3.17;;
19505;SDS011;9894;50.852;-0.140;2024-03-17T09:13:22;20.55;;;3.13;;
19505;SDS011;9894;50.852;-0.140;2024-03-17T09:15:51;12.82;;;2.55;;
19505;SDS011;9894;50.852;-0.140;2024-03-17T09:18:18;28.60;;;3.28;;
19505;SDS011;9894;50.852;-0.140;2024-03-17T09:20:45;45.80;;;3.65;;
19505;SDS011;9894;50.852;-0.140;2024-03-17T09:23:12;104.30;;;6.75;;
19505;SDS011;9894;50.852;-0.140;2024-03-17T09:25:39;69.18;;;5.13;;
19505;SDS011;9894;50.852;-0.140;2024-03-17T09:28:06;81.78;;;6.18;;
19505;SDS011;9894;50.852;-0.140;2024-03-17T09:30:33;47.47;;;3.35;;
19505;SDS011;9894;50.852;-0.140;2024-03-17T09:33:00;182.10;;;12.43;;
19505;SDS011;9894;50.852;-0.140;2024-03-17T09:37:56;166.48;;;11.25;;
19505;SDS011;9894;50.852;-0.140;2024-03-17T09:40:23;263.13;;;15.32;;
19505;SDS011;9894;50.852;-0.140;2024-03-17T09:42:50;248.57;;;16.42;;
19505;SDS011;9894;50.852;-0.140;2024-03-17T09:45:18;372.52;;;23.10;;
19505;SDS011;9894;50.852;-0.140;2024-03-17T09:47:45;257.67;;;17.35;;
19505;SDS011;9894;50.852;-0.140;2024-03-17T09:50:13;347.90;;;26.63;;
19505;SDS011;9894;50.852;-0.140;2024-03-17T09:52:42;361.20;;;21.77;;
19505;SDS011;9894;50.852;-0.140;2024-03-17T09:55:09;413.30;;;28.98;;
19505;SDS011;9894;50.852;-0.140;2024-03-17T09:57:40;464.40;;;34.00;;
19505;SDS011;9894;50.852;-0.140;2024-03-17T10:00:11;514.63;;;41.75;;
19505;SDS011;9894;50.852;-0.140;2024-03-17T10:02:45;492.48;;;39.35;;
19505;SDS011;9894;50.852;-0.140;2024-03-17T10:05:22;450.13;;;30.52;;
19505;SDS011;9894;50.852;-0.140;2024-03-17T10:07:50;484.80;;;35.08;;
19505;SDS011;9894;50.852;-0.140;2024-03-17T10:10:17;595.40;;;43.03;;
19505;SDS011;9894;50.852;-0.140;2024-03-17T10:12:48;523.70;;;37.88;;
19505;SDS011;9894;50.852;-0.140;2024-03-17T10:15:16;429.35;;;26.45;;
19505;SDS011;9894;50.852;-0.140;2024-03-17T10:17:43;543.58;;;42.72;;
19505;SDS011;9894;50.852;-0.140;2024-03-17T10:20:11;440.00;;;35.38;;
19505;SDS011;9894;50.852;-0.140;2024-03-17T10:22:37;446.17;;;40.28;;
19505;SDS011;9894;50.852;-0.140;2024-03-17T10:25:04;413.13;;;30.38;;
19505;SDS011;9894;50.852;-0.140;2024-03-17T10:27:31;485.33;;;36.70;;
19505;SDS011;9894;50.852;-0.140;2024-03-17T10:29:58;400.88;;;27.60;;
19505;SDS011;9894;50.852;-0.140;2024-03-17T10:32:25;346.38;;;25.67;;
19505;SDS011;9894;50.852;-0.140;2024-03-17T10:34:52;382.38;;;32.08;;
19505;SDS011;9894;50.852;-0.140;2024-03-17T10:37:19;327.92;;;21.92;;
19505;SDS011;9894;50.852;-0.140;2024-03-17T10:39:50;283.85;;;17.27;;
19505;SDS011;9894;50.852;-0.140;2024-03-17T10:42:27;379.23;;;26.48;;
19505;SDS011;9894;50.852;-0.140;2024-03-17T10:44:54;386.67;;;26.98;;
19505;SDS011;9894;50.852;-0.140;2024-03-17T10:47:25;295.50;;;20.67;;
19505;SDS011;9894;50.852;-0.140;2024-03-17T10:49:52;293.65;;;18.02;;
19505;SDS011;9894;50.852;-0.140;2024-03-17T10:52:20;401.52;;;31.45;;
19505;SDS011;9894;50.852;-0.140;2024-03-17T10:59:42;378.85;;;22.27;;
19505;SDS011;9894;50.852;-0.140;2024-03-17T11:02:17;484.83;;;40.40;;
19505;SDS011;9894;50.852;-0.140;2024-03-17T11:04:54;518.90;;;33.85;;
19505;SDS011;9894;50.852;-0.140;2024-03-17T11:07:22;451.45;;;30.33;;
19505;SDS011;9894;50.852;-0.140;2024-03-17T11:09:50;474.95;;;40.20;;
19505;SDS011;9894;50.852;-0.140;2024-03-17T11:15:46;401.88;;;27.42;;
19505;SDS011;9894;50.852;-0.140;2024-03-17T11:17:55;635.33;;;48.10;;
19505;SDS011;9894;50.852;-0.140;2024-03-17T11:20:43;432.70;;;32.08;;
19505;SDS011;9894;50.852;-0.140;2024-03-17T11:23:10;513.30;;;41.60;;
19505;SDS011;9894;50.852;-0.140;2024-03-17T11:28:44;360.90;;;22.67;;
19505;SDS011;9894;50.852;-0.140;2024-03-17T11:31:05;524.15;;;36.47;;
19505;SDS011;9894;50.852;-0.140;2024-03-17T11:38:51;341.30;;;22.58;;
19505;SDS011;9894;50.852;-0.140;2024-03-17T11:46:49;376.75;;;27.08;;
19505;SDS011;9894;50.852;-0.140;2024-03-17T11:49:27;467.10;;;31.27;;
19505;SDS011;9894;50.852;-0.140;2024-03-17T11:52:00;427.00;;;32.05;;
19505;SDS011;9894;50.852;-0.140;2024-03-17T11:54:27;420.65;;;31.35;;
19505;SDS011;9894;50.852;-0.140;2024-03-17T11:56:55;384.55;;;27.30;;
19505;SDS011;9894;50.852;-0.140;2024-03-17T11:59:21;424.17;;;36.15;;
19505;SDS011;9894;50.852;-0.140;2024-03-17T12:01:49;343.13;;;23.20;;
19505;SDS011;9894;50.852;-0.140;2024-03-17T12:04:15;332.63;;;27.38;;
19505;SDS011;9894;50.852;-0.140;2024-03-17T12:06:47;379.67;;;26.80;;
19505;SDS011;9894;50.852;-0.140;2024-03-17T12:09:20;318.58;;;17.75;;
19505;SDS011;9894;50.852;-0.140;2024-03-17T12:11:50;415.15;;;28.60;;
19505;SDS011;9894;50.852;-0.140;2024-03-17T12:14:17;395.55;;;22.90;;
19505;SDS011;9894;50.852;-0.140;2024-03-17T12:16:46;306.63;;;18.90;;
19505;SDS011;9894;50.852;-0.140;2024-03-17T12:19:12;325.05;;;20.73;;
19505;SDS011;9894;50.852;-0.140;2024-03-17T12:21:45;350.85;;;28.20;;
19505;SDS011;9894;50.852;-0.140;2024-03-17T12:24:21;222.40;;;14.50;;
19505;SDS011;9894;50.852;-0.140;2024-03-17T12:26:48;253.85;;;15.18;;
19505;SDS011;9894;50.852;-0.140;2024-03-17T12:31:51;395.10;;;30.75;;
19505;SDS011;9894;50.852;-0.140;2024-03-17T12:34:19;419.48;;;30.02;;
19505;SDS011;9894;50.852;-0.140;2024-03-17T12:36:45;217.27;;;13.50;;
19505;SDS011;9894;50.852;-0.140;2024-03-17T12:41:44;312.40;;;23.65;;
19505;SDS011;9894;50.852;-0.140;2024-03-17T12:44:28;322.58;;;19.70;;
19505;SDS011;9894;50.852;-0.140;2024-03-17T12:46:57;416.45;;;31.30;;
19505;SDS011;9894;50.852;-0.140;2024-03-17T12:49:26;172.20;;;11.68;;
19505;SDS011;9894;50.852;-0.140;2024-03-17T12:51:52;179.57;;;16.38;;
19505;SDS011;9894;50.852;-0.140;2024-03-17T12:54:20;94.72;;;11.25;;
19505;SDS011;9894;50.852;-0.140;2024-03-17T12:56:46;132.02;;;13.05;;
19505;SDS011;9894;50.852;-0.140;2024-03-17T13:00:16;78.03;;;8.68;;
19505;SDS011;9894;50.852;-0.140;2024-03-17T13:02:44;36.28;;;7.97;;
19505;SDS011;9894;50.852;-0.140;2024-03-17T13:07:38;149.85;;;11.45;;
19505;SDS011;9894;50.852;-0.140;2024-03-17T13:10:05;130.93;;;11.90;;
19505;SDS011;9894;50.852;-0.140;2024-03-17T13:12:33;112.88;;;6.47;;
19505;SDS011;9894;50.852;-0.140;2024-03-17T13:15:00;225.48;;;14.10;;
19505;SDS011;9894;50.852;-0.140;2024-03-17T13:17:27;163.63;;;12.02;;
19505;SDS011;9894;50.852;-0.140;2024-03-17T13:19:54;156.15;;;12.00;;
19505;SDS011;9894;50.852;-0.140;2024-03-17T13:22:21;116.03;;;12.00;;
19505;SDS011;9894;50.852;-0.140;2024-03-17T13:24:48;154.95;;;11.60;;
19505;SDS011;9894;50.852;-0.140;2024-03-17T13:27:15;163.20;;;11.35;;
19505;SDS011;9894;50.852;-0.140;2024-03-17T13:29:42;140.57;;;12.52;;
19505;SDS011;9894;50.852;-0.140;2024-03-17T13:32:09;115.25;;;8.85;;
19505;SDS011;9894;50.852;-0.140;2024-03-17T13:34:36;218.25;;;15.52;;
19505;SDS011;9894;50.852;-0.140;2024-03-17T13:37:04;83.78;;;7.90;;
19505;SDS011;9894;50.852;-0.140;2024-03-17T13:39:31;19.73;;;5.30;;
19505;SDS011;9894;50.852;-0.140;2024-03-17T13:41:59;23.55;;;5.88;;
19505;SDS011;9894;50.852;-0.140;2024-03-17T13:44:29;19.80;;;5.78;;
19505;SDS011;9894;50.852;-0.140;2024-03-17T13:46:59;23.35;;;5.97;;
19505;SDS011;9894;50.852;-0.140;2024-03-17T13:49:27;18.13;;;6.18;;
19505;SDS011;9894;50.852;-0.140;2024-03-17T13:51:54;17.23;;;4.00;;
19505;SDS011;9894;50.852;-0.140;2024-03-17T13:54:22;44.03;;;5.88;;
19505;SDS011;9894;50.852;-0.140;2024-03-17T13:56:49;77.93;;;6.63;;
19505;SDS011;9894;50.852;-0.140;2024-03-17T14:02:23;31.65;;;4.65;;
19505;SDS011;9894;50.852;-0.140;2024-03-17T14:04:49;88.68;;;5.63;;
19505;SDS011;9894;50.852;-0.140;2024-03-17T14:07:16;97.50;;;6.88;;
19505;SDS011;9894;50.852;-0.140;2024-03-17T14:09:43;112.25;;;5.38;;
19505;SDS011;9894;50.852;-0.140;2024-03-17T14:12:10;123.13;;;6.53;;
19505;SDS011;9894;50.852;-0.140;2024-03-17T14:14:37;134.18;;;7.65;;
19505;SDS011;9894;50.852;-0.140;2024-03-17T14:17:03;86.82;;;5.38;;
19505;SDS011;9894;50.852;-0.140;2024-03-17T14:19:32;335.27;;;18.33;;
19505;SDS011;9894;50.852;-0.140;2024-03-17T14:21:58;107.20;;;6.28;;
19505;SDS011;9894;50.852;-0.140;2024-03-17T14:24:28;131.43;;;9.10;;
19505;SDS011;9894;50.852;-0.140;2024-03-17T14:26:55;144.30;;;8.55;;
19505;SDS011;9894;50.852;-0.140;2024-03-17T14:29:22;114.55;;;9.07;;
19505;SDS011;9894;50.852;-0.140;2024-03-17T14:31:49;106.55;;;7.47;;
19505;SDS011;9894;50.852;-0.140;2024-03-17T14:34:15;142.10;;;9.43;;
19505;SDS011;9894;50.852;-0.140;2024-03-17T14:36:42;198.45;;;10.82;;
19505;SDS011;9894;50.852;-0.140;2024-03-17T14:39:10;152.98;;;9.98;;
19505;SDS011;9894;50.852;-0.140;2024-03-17T14:41:36;232.35;;;17.95;;
19505;SDS011;9894;50.852;-0.140;2024-03-17T14:44:03;205.35;;;11.65;;
19505;SDS011;9894;50.852;-0.140;2024-03-17T14:46:31;183.27;;;11.43;;
19505;SDS011;9894;50.852;-0.140;2024-03-17T14:48:58;177.32;;;9.90;;
19505;SDS011;9894;50.852;-0.140;2024-03-17T14:51:25;191.13;;;11.20;;
19505;SDS011;9894;50.852;-0.140;2024-03-17T14:53:52;172.18;;;10.30;;
19505;SDS011;9894;50.852;-0.140;2024-03-17T14:56:19;202.73;;;12.45;;
19505;SDS011;9894;50.852;-0.140;2024-03-17T14:58:46;199.85;;;10.40;;
19505;SDS011;9894;50.852;-0.140;2024-03-17T15:01:13;144.00;;;9.38;;
19505;SDS011;9894;50.852;-0.140;2024-03-17T15:03:40;138.82;;;7.57;;
19505;SDS011;9894;50.852;-0.140;2024-03-17T15:06:12;131.73;;;7.55;;
19505;SDS011;9894;50.852;-0.140;2024-03-17T15:08:40;165.00;;;12.93;;
19505;SDS011;9894;50.852;-0.140;2024-03-17T15:11:07;247.88;;;12.52;;
19505;SDS011;9894;50.852;-0.140;2024-03-17T15:13:35;167.48;;;11.90;;